Montblanc, Spain
Current Conditions -  °F | °C
As of 12:00 PM on Friday 31 Oct 2014 (Local Time) from LERS Reporting Station
Scattered Clouds Scattered Clouds  
Wind Chill: 72°   Ceiling: Unl
Heat Index: 72°   Visibility: 6mi
Dew Point: 63°   Wind: 3mph
Humidity: 73%   Direction: 130°SE
Pressure: 30.27"   Gusts: NA
Location:  41.38°N, 1.16°E
Report Text: LERS 311100Z 13003KT 080V170 9999 FEW022 SCT033 22/17 Q1025
Loading
Personal Weather Stations






























Interactive Weather Map
Tropical Storm Tracking
New forecast layout! Learn more

10-Day Weather Forecast

Advertisements
Track Severe Weather on mobile